Time;durP1;ratioP1;P1;durP2;ratioP2;P2;SDS_P1;SDS_P2;PMS_P1;PMS_P2;Temp;Humidity;BMP_temperature;BMP_pressure;BME280_temperature;BME280_humidity;BME280_pressure;Samples;Min_cycle;Max_cycle;Signal;HPM_P1;HPM_P2
2023/10/10 00:00:55;;;;;;;21.40;8.20;;;;;;;8.98;91.96;100630.55;110333;1276;22177;-61
2023/10/10 00:03:39;;;;;;;21.20;8.00;;;;;;;8.96;91.94;100629.25;110366;1269;22818;-61
2023/10/10 00:06:13;;;;;;;16.80;7.30;;;;;;;8.95;92.05;100631.52;110359;1273;22199;-61
2023/10/10 00:08:44;;;;;;;16.10;6.70;;;;;;;8.97;92.12;100630.23;110342;1269;22249;-61
2023/10/10 00:11:16;;;;;;;20.40;7.60;;;;;;;8.98;92.10;100631.95;110353;1276;22235;-61
2023/10/10 00:13:52;;;;;;;20.80;8.20;;;;;;;8.98;91.94;100630.03;110364;1276;22329;-61
2023/10/10 00:16:26;;;;;;;18.50;7.20;;;;;;;8.99;92.09;100627.62;110388;1272;22268;-61
2023/10/10 00:19:08;;;;;;;19.00;7.50;;;;;;;8.96;91.87;100625.70;110347;1276;22918;-61
2023/10/10 00:21:40;;;;;;;17.70;8.00;;;;;;;8.95;92.07;100630.02;110339;1276;22494;-61
2023/10/10 00:24:12;;;;;;;20.00;8.70;;;;;;;8.96;92.24;100624.95;110360;1276;22219;-61
2023/10/10 00:26:44;;;;;;;20.00;8.40;;;;;;;8.96;92.16;100619.73;110312;1275;22318;-61
2023/10/10 00:29:18;;;;;;;22.60;9.00;;;;;;;8.95;92.37;100618.22;110362;1276;22152;-61
2023/10/10 00:31:55;;;;;;;21.20;9.10;;;;;;;8.97;92.35;100620.08;110356;1261;22266;-61
2023/10/10 00:34:33;;;;;;;26.40;9.40;;;;;;;8.99;92.46;100621.34;110348;1276;22274;-61
2023/10/10 00:37:08;;;;;;;18.50;7.70;;;;;;;9.00;92.44;100619.23;110297;1276;22208;-61
2023/10/10 00:39:39;;;;;;;19.20;8.00;;;;;;;9.00;92.41;100618.98;110353;1273;22344;-61
2023/10/10 00:42:19;;;;;;;19.00;7.70;;;;;;;9.02;92.56;100617.68;110357;1268;22143;-61
2023/10/10 00:44:53;;;;;;;19.20;7.60;;;;;;;9.03;92.49;100617.87;110365;1276;23223;-61
2023/10/10 00:47:26;;;;;;;19.80;9.50;;;;;;;9.02;92.49;100618.55;110368;1276;23299;-61
2023/10/10 00:49:59;;;;;;;18.60;8.20;;;;;;;9.00;92.59;100622.89;110326;1276;22270;-61
2023/10/10 00:52:31;;;;;;;18.00;6.90;;;;;;;9.00;92.65;100623.94;110387;1276;22322;-61
2023/10/10 00:55:04;;;;;;;20.60;8.10;;;;;;;9.02;92.72;100624.64;110314;1276;22216;-61
2023/10/10 00:57:36;;;;;;;19.00;8.60;;;;;;;9.06;92.67;100627.19;110377;1276;22302;-61
2023/10/10 01:00:14;;;;;;;19.10;8.20;;;;;;;9.09;92.67;100623.27;110331;1276;22179;-61
2023/10/10 01:02:46;;;;;;;24.60;10.30;;;;;;;9.10;92.63;100619.00;110383;1268;22320;-60
2023/10/10 01:05:23;;;;;;;20.80;8.80;;;;;;;9.11;92.52;100614.98;110333;1276;22285;-61
2023/10/10 01:07:54;;;;;;;19.60;8.00;;;;;;;9.10;92.43;100610.03;110352;1276;22199;-61
2023/10/10 01:10:25;;;;;;;20.80;9.00;;;;;;;9.06;92.53;100613.58;110355;1276;23176;-61
2023/10/10 01:12:56;;;;;;;20.20;8.60;;;;;;;9.05;92.68;100609.89;110375;1276;22573;-61
2023/10/10 01:15:34;;;;;;;21.80;9.10;;;;;;;9.04;92.68;100611.71;110392;1276;22199;-61
2023/10/10 01:18:13;;;;;;;19.70;8.90;;;;;;;9.04;92.76;100610.97;110319;1273;22218;-61
2023/10/10 01:20:48;;;;;;;24.70;8.60;;;;;;;9.06;92.74;100613.41;110331;1276;22208;-61
2023/10/10 01:23:26;;;;;;;22.90;10.00;;;;;;;9.08;92.81;100610.83;110389;1276;22205;-61
2023/10/10 01:26:05;;;;;;;25.70;10.50;;;;;;;9.07;92.74;100611.10;110388;1271;22217;-61
2023/10/10 01:28:36;;;;;;;22.90;9.90;;;;;;;9.06;92.81;100608.35;110358;1276;22159;-61
2023/10/10 01:31:11;;;;;;;21.90;10.00;;;;;;;9.04;92.78;100613.67;110370;1276;22170;-61
2023/10/10 01:33:47;;;;;;;25.30;11.40;;;;;;;9.02;92.80;100615.58;110360;1276;22986;-61
2023/10/10 01:36:20;;;;;;;22.60;10.40;;;;;;;9.01;92.84;100622.71;110382;1276;22152;-60
2023/10/10 01:39:21;;;;;;;23.90;10.20;;;;;;;8.99;92.95;100621.35;110365;1276;22191;-60
2023/10/10 01:41:52;;;;;;;22.20;9.20;;;;;;;9.01;93.17;100613.23;110376;1276;23115;-61
2023/10/10 01:44:23;;;;;;;23.70;10.60;;;;;;;9.03;93.04;100609.19;110397;1276;22175;-61
2023/10/10 01:46:54;;;;;;;25.00;10.90;;;;;;;9.03;93.05;100605.52;110373;1276;22240;-61
2023/10/10 01:49:29;;;;;;;28.30;12.40;;;;;;;9.03;93.03;100603.36;110345;1276;22266;-61
2023/10/10 01:52:00;;;;;;;23.20;11.10;;;;;;;9.04;93.10;100592.91;110371;1276;22246;-61
2023/10/10 01:54:40;;;;;;;26.90;11.10;;;;;;;9.06;92.98;100595.63;110389;1268;22225;-61
2023/10/10 01:57:21;;;;;;;26.70;11.80;;;;;;;9.05;93.17;100596.98;110362;1276;22202;-61
2023/10/10 01:59:57;;;;;;;24.70;11.70;;;;;;;9.06;92.94;100594.82;110358;1276;22317;-61
2023/10/10 02:02:30;;;;;;;28.20;11.80;;;;;;;9.02;92.87;100590.11;110366;1276;22927;-61
2023/10/10 02:05:03;;;;;;;26.80;12.10;;;;;;;9.03;93.06;100590.73;110311;1276;22227;-61
2023/10/10 02:07:34;;;;;;;29.70;12.30;;;;;;;9.03;93.00;100598.34;110394;1265;22240;-61
2023/10/10 02:10:13;;;;;;;26.40;11.40;;;;;;;9.03;92.96;100598.98;110328;1276;22134;-61
2023/10/10 02:12:45;;;;;;;28.10;12.30;;;;;;;9.02;92.96;100602.86;110348;1276;22218;-61
2023/10/10 02:15:19;;;;;;;28.20;11.10;;;;;;;9.02;92.94;100607.50;110350;1271;22176;-61
2023/10/10 02:17:54;;;;;;;29.10;12.90;;;;;;;9.02;93.14;100609.89;110378;1276;22173;-61
2023/10/10 02:20:49;;;;;;;24.30;11.40;;;;;;;9.01;93.10;100611.98;110366;1270;22230;-61
2023/10/10 02:23:32;;;;;;;28.00;13.10;;;;;;;9.02;93.22;100616.32;110380;1276;22188;-61
2023/10/10 02:26:07;;;;;;;28.00;12.80;;;;;;;9.04;93.21;100615.67;110360;1276;22913;-61
2023/10/10 02:28:47;;;;;;;26.40;12.20;;;;;;;9.06;93.16;100614.72;110346;1276;22229;-61
2023/10/10 02:31:18;;;;;;;;;;;;;;;9.08;93.07;100614.39;110411;1276;22506;-61
2023/10/10 02:33:55;;;;;;;28.40;12.00;;;;;;;9.09;93.13;100615.31;110381;1276;23119;-61
2023/10/10 02:36:32;;;;;;;28.80;12.70;;;;;;;9.10;93.12;100610.09;110375;1276;22242;-61
2023/10/10 02:41:59;;;;;;;29.00;12.70;;;;;;;9.14;93.06;100595.61;110366;1276;22390;-61
2023/10/10 02:44:46;;;;;;;26.70;12.60;;;;;;;9.15;93.10;100590.45;110364;1276;22171;-61
2023/10/10 02:47:30;;;;;;;33.50;13.40;;;;;;;9.15;93.04;100590.85;110320;1275;22225;-61
2023/10/10 02:50:11;;;;;;;25.70;11.80;;;;;;;9.13;92.93;100605.98;110353;1276;22161;-61
2023/10/10 02:52:45;;;;;;;27.70;11.90;;;;;;;9.11;92.94;100611.95;110381;1272;22359;-61
2023/10/10 02:55:22;;;;;;;28.00;13.40;;;;;;;9.07;92.98;100625.40;110357;1276;22189;-61
2023/10/10 02:57:54;;;;;;;31.00;13.10;;;;;;;9.04;93.05;100626.41;110404;1276;22188;-61
2023/10/10 03:00:28;;;;;;;31.60;13.10;;;;;;;9.03;93.25;100624.46;110402;1276;23390;-61
2023/10/10 03:02:59;;;;;;;32.30;13.40;;;;;;;9.04;93.36;100628.57;110397;1271;22181;-61
2023/10/10 03:05:40;;;;;;;31.60;12.90;;;;;;;9.03;93.32;100627.58;110417;1276;22164;-61
2023/10/10 03:08:17;;;;;;;32.00;13.80;;;;;;;9.03;93.44;100623.34;110365;1276;22175;-61
2023/10/10 03:11:00;;;;;;;30.30;13.50;;;;;;;9.05;93.47;100618.64;110328;1276;23474;-61
2023/10/10 03:13:35;;;;;;;27.90;13.10;;;;;;;9.07;93.52;100612.21;110401;1276;22190;-61
2023/10/10 03:22:30;;;;;;;28.60;13.60;;;;;;;9.08;93.52;100617.16;102775;1314;546333;-59
2023/10/10 03:25:09;;;;;;;30.60;13.10;;;;;;;9.05;93.57;100623.09;105571;1285;22589;-60
2023/10/10 03:27:50;;;;;;;32.60;13.70;;;;;;;9.04;93.68;100621.31;105536;1285;23245;-59
2023/10/10 03:30:24;;;;;;;29.20;13.50;;;;;;;9.02;93.66;100625.91;109732;1281;22223;-61
2023/10/10 03:33:09;;;;;;;30.60;13.50;;;;;;;9.00;93.76;100622.50;109738;1285;22202;-60
2023/10/10 03:36:00;;;;;;;31.80;14.30;;;;;;;9.00;94.07;100619.34;109608;1283;250098;-61
2023/10/10 03:39:14;;;;;;;31.90;14.60;;;;;;;9.01;94.09;100625.42;109852;1283;22228;-60
2023/10/10 05:24:42;;;;;;;49.70;24.50;;;;;;;9.19;95.87;100626.33;110259;1269;22716;-57
2023/10/10 05:27:11;;;;;;;49.80;24.60;;;;;;;9.22;95.88;100631.08;110258;1269;22962;-58
2023/10/10 05:29:39;;;;;;;53.50;25.70;;;;;;;9.26;95.79;100626.07;110183;1269;22188;-58
2023/10/10 05:32:09;;;;;;;;;;;;;;;9.29;95.95;100617.31;110250;1276;23315;-58
2023/10/10 05:34:37;;;;;;;44.20;22.50;;;;;;;9.28;95.95;100617.75;110190;1271;22364;-59
2023/10/10 05:37:06;;;;;;;50.70;24.60;;;;;;;9.27;95.93;100626.51;110268;1269;22411;-60
2023/10/10 05:39:37;;;;;;;52.40;26.80;;;;;;;9.26;95.88;100624.23;110206;1269;22394;-57
2023/10/10 05:42:19;;;;;;;51.90;25.20;;;;;;;9.30;96.18;100628.12;110241;1270;22232;-59
2023/10/10 05:44:49;;;;;;;46.30;23.00;;;;;;;9.33;96.18;100636.11;110225;1269;22222;-60
2023/10/10 05:47:17;;;;;;;51.30;23.00;;;;;;;9.35;96.03;100637.30;110272;1265;22230;-60
2023/10/10 05:49:46;;;;;;;47.30;24.30;;;;;;;9.38;96.03;100634.88;110546;1265;22321;-61
2023/10/10 05:52:14;;;;;;;46.90;22.80;;;;;;;9.42;96.12;100631.20;110438;1265;22389;-59
2023/10/10 05:54:42;;;;;;;46.80;22.00;;;;;;;9.42;96.10;100631.02;110591;1269;22337;-58
2023/10/10 05:57:11;;;;;;;41.20;21.30;;;;;;;9.43;96.05;100631.22;110523;1265;22352;-59
2023/10/10 05:59:39;;;;;;;47.70;22.50;;;;;;;9.45;96.13;100633.95;110512;1265;22314;-57
2023/10/10 06:02:11;;;;;;;47.00;22.80;;;;;;;9.45;96.06;100641.26;110399;1265;22500;-60
2023/10/10 06:04:43;;;;;;;56.20;24.60;;;;;;;9.45;96.16;100641.19;110514;1265;23054;-60
2023/10/10 06:07:13;;;;;;;53.50;24.30;;;;;;;9.46;96.18;100647.16;110571;1265;22537;-58
2023/10/10 06:09:41;;;;;;;49.30;23.70;;;;;;;9.50;96.14;100657.60;110535;1265;22350;-59
2023/10/10 06:12:09;;;;;;;50.40;22.70;;;;;;;9.52;96.03;100656.34;110528;1265;23025;-56
2023/10/10 06:14:38;;;;;;;51.90;22.70;;;;;;;9.56;96.17;100652.73;110534;1257;22324;-56
2023/10/10 06:17:09;;;;;;;46.00;21.80;;;;;;;9.61;96.41;100646.86;110532;1265;22869;-57
2023/10/10 06:19:37;;;;;;;47.30;24.70;;;;;;;9.65;96.55;100653.23;110558;1264;23106;-57
2023/10/10 06:22:08;;;;;;;54.70;26.00;;;;;;;9.65;96.21;100658.10;110607;1270;23147;-57
2023/10/10 06:24:39;;;;;;;47.90;23.10;;;;;;;9.66;96.27;100662.13;110591;1265;23077;-60
2023/10/10 06:27:09;;;;;;;51.00;22.00;;;;;;;9.69;96.56;100659.80;110596;1268;22145;-57
2023/10/10 06:29:40;;;;;;;46.50;23.80;;;;;;;9.72;96.50;100664.48;110622;1268;22224;-55
2023/10/10 06:32:10;;;;;;;45.50;21.90;;;;;;;9.74;96.55;100665.75;110602;1268;22955;-60
2023/10/10 06:34:39;;;;;;;46.10;21.30;;;;;;;9.74;96.20;100678.80;110593;1269;22203;-59
2023/10/10 06:37:07;;;;;;;39.50;20.10;;;;;;;9.74;96.15;100679.70;110641;1272;22866;-59
2023/10/10 06:39:53;;;;;;;43.10;20.70;;;;;;;9.75;96.10;100677.89;110591;1272;22155;-57
2023/10/10 06:42:27;;;;;;;43.50;20.10;;;;;;;9.78;96.21;100680.79;110591;1272;22398;-58
2023/10/10 06:44:55;;;;;;;41.20;21.80;;;;;;;9.80;96.24;100678.41;110607;1261;22290;-58
2023/10/10 06:47:28;;;;;;;43.90;20.80;;;;;;;9.80;96.32;100684.60;110607;1272;22165;-59
2023/10/10 06:49:57;;;;;;;40.30;20.40;;;;;;;9.80;96.46;100684.51;110608;1264;23049;-58
2023/10/10 06:52:27;;;;;;;43.90;20.70;;;;;;;9.82;96.60;100673.36;110611;1272;22278;-58
2023/10/10 06:54:55;;;;;;;50.90;23.40;;;;;;;9.87;96.84;100671.27;110633;1265;22191;-59
2023/10/10 06:57:35;;;;;;;39.10;19.60;;;;;;;9.90;96.87;100674.85;110589;1267;22140;-57
2023/10/10 07:00:21;;;;;;;44.10;21.20;;;;;;;9.92;96.82;100682.66;110553;1272;22964;-57
2023/10/10 07:02:50;;;;;;;42.30;21.00;;;;;;;9.95;96.79;100684.68;110639;1271;23034;-58
2023/10/10 07:05:19;;;;;;;43.60;21.30;;;;;;;9.95;96.57;100685.65;110611;1265;22206;-59
2023/10/10 07:07:52;;;;;;;41.60;20.60;;;;;;;9.99;96.82;100685.48;110619;1267;22164;-56
2023/10/10 07:10:33;;;;;;;46.80;21.80;;;;;;;10.00;96.60;100689.64;110616;1272;22180;-58
2023/10/10 07:13:01;;;;;;;49.20;24.00;;;;;;;10.01;96.78;100689.70;110613;1272;22301;-59
2023/10/10 07:15:34;;;;;;;50.30;22.60;;;;;;;10.05;96.90;100688.86;110625;1272;22167;-59
2023/10/10 07:18:08;;;;;;;56.00;22.60;;;;;;;10.09;96.92;100692.27;110671;1272;22201;-57
2023/10/10 07:21:04;;;;;;;45.80;22.20;;;;;;;10.11;97.09;100691.57;110614;1272;22975;-60
2023/10/10 07:23:42;;;;;;;54.30;23.40;;;;;;;10.16;97.31;100689.67;110630;1272;22163;-57
2023/10/10 07:26:18;;;;;;;49.30;22.90;;;;;;;10.20;97.05;100687.90;110621;1265;22170;-57
2023/10/10 07:28:49;;;;;;;48.50;24.40;;;;;;;10.21;97.00;100687.40;110636;1271;22415;-57
2023/10/10 07:31:18;;;;;;;50.20;22.60;;;;;;;10.22;97.15;100687.90;110637;1272;22346;-57
2023/10/10 07:33:55;;;;;;;50.60;23.10;;;;;;;10.25;97.30;100688.58;110607;1265;22409;-57
2023/10/10 07:36:27;;;;;;;51.20;25.10;;;;;;;10.28;97.17;100689.85;110604;1266;23903;-57
2023/10/10 07:39:32;;;;;;;47.20;21.80;;;;;;;10.34;97.10;100690.15;110616;1269;22884;-57
2023/10/10 07:41:52;;;;;;;45.10;22.40;;;;;;;10.37;97.18;100688.41;110605;1272;22456;-57
2023/10/10 07:44:22;;;;;;;51.50;21.80;;;;;;;10.39;97.07;100683.89;110606;1272;22251;-56
2023/10/10 07:49:33;;;;;;;49.70;23.30;;;;;;;10.41;97.49;100685.87;110618;1272;22381;-59
2023/10/10 07:52:02;;;;;;;48.10;23.10;;;;;;;10.44;97.51;100687.38;110605;1268;22311;-59
2023/10/10 07:54:38;;;;;;;45.90;22.60;;;;;;;10.46;97.79;100684.73;110600;1272;22166;-59
2023/10/10 07:57:17;;;;;;;44.60;21.80;;;;;;;10.50;97.78;100684.49;110605;1272;22212;-60
2023/10/10 07:59:46;;;;;;;44.30;21.50;;;;;;;10.50;97.88;100685.42;110609;1272;23086;-59
2023/10/10 08:02:24;;;;;;;48.30;21.50;;;;;;;10.52;98.11;100680.59;110614;1272;22252;-58
2023/10/10 08:04:53;;;;;;;50.90;23.30;;;;;;;10.55;98.33;100680.10;110632;1272;22179;-59
2023/10/10 08:07:23;;;;;;;44.80;19.50;;;;;;;10.59;98.43;100674.42;110622;1266;22333;-58
2023/10/10 08:10:12;;;;;;;46.60;22.50;;;;;;;10.62;98.26;100678.45;110623;1272;23070;-59
2023/10/10 08:12:41;;;;;;;46.00;20.10;;;;;;;10.67;98.32;100672.70;110625;1272;22922;-59
2023/10/10 08:15:19;;;;;;;49.30;22.00;;;;;;;10.70;98.37;100667.84;110647;1272;22195;-59
2023/10/10 08:17:54;;;;;;;44.00;20.50;;;;;;;10.74;98.45;100672.30;110622;1268;22973;-58
2023/10/10 08:23:24;;;;;;;41.70;20.30;;;;;;;10.84;98.85;100680.34;110633;1272;22947;-59
2023/10/10 08:25:52;;;;;;;42.90;20.00;;;;;;;10.88;98.29;100687.60;110615;1271;22375;-57
2023/10/10 08:28:21;;;;;;;42.50;19.70;;;;;;;10.91;98.66;100683.20;110623;1272;22863;-60
2023/10/10 08:30:49;;;;;;;40.00;19.40;;;;;;;10.97;98.82;100681.52;110629;1272;22491;-58
2023/10/10 08:33:17;;;;;;;36.70;18.30;;;;;;;11.03;98.90;100678.66;110632;1265;22925;-57
2023/10/10 08:35:46;;;;;;;42.20;18.90;;;;;;;11.08;98.73;100674.02;110620;1272;22334;-57
2023/10/10 08:38:14;;;;;;;42.70;18.60;;;;;;;11.13;98.46;100678.71;110604;1267;22205;-60
2023/10/10 08:40:43;;;;;;;41.80;18.00;;;;;;;11.18;98.62;100686.55;110604;1272;22346;-58
2023/10/10 08:43:11;;;;;;;38.70;17.10;;;;;;;11.25;98.53;100688.93;110595;1272;22275;-54
2023/10/10 08:45:44;;;;;;;38.40;16.00;;;;;;;11.31;98.60;100694.13;110623;1272;22296;-59
2023/10/10 08:48:13;;;;;;;34.40;15.40;;;;;;;11.36;98.20;100695.00;110593;1272;23053;-57
2023/10/10 08:50:41;;;;;;;34.60;14.70;;;;;;;11.39;97.95;100693.90;110598;1272;23036;-57
2023/10/10 08:53:11;;;;;;;34.50;14.70;;;;;;;11.44;97.96;100694.09;110578;1265;22143;-59
2023/10/10 08:55:40;;;;;;;27.60;12.70;;;;;;;11.48;97.94;100694.78;110636;1272;22814;-58
2023/10/10 08:58:10;;;;;;;30.20;12.90;;;;;;;11.50;97.76;100696.08;110580;1272;22214;-60
2023/10/10 09:00:39;;;;;;;32.20;13.60;;;;;;;11.53;97.62;100696.35;110596;1272;22833;-59
2023/10/10 09:03:07;;;;;;;34.70;13.90;;;;;;;11.54;97.47;100696.11;110631;1268;22873;-57
2023/10/10 09:05:36;;;;;;;31.50;13.30;;;;;;;11.56;97.27;100693.05;110606;1272;22229;-56
2023/10/10 09:08:14;;;;;;;30.10;12.90;;;;;;;11.57;97.35;100693.43;110608;1266;22259;-60
2023/10/10 09:10:45;;;;;;;30.90;12.90;;;;;;;11.60;97.39;100691.30;110573;1266;22224;-56
2023/10/10 09:13:13;;;;;;;28.40;11.70;;;;;;;11.64;97.74;100690.91;110598;1268;23084;-60
2023/10/10 09:15:54;;;;;;;29.30;12.50;;;;;;;11.71;97.85;100688.11;110608;1268;22188;-55
2023/10/10 09:18:25;;;;;;;29.50;12.30;;;;;;;11.76;97.63;100682.98;110467;1271;22929;-59
2023/10/10 09:21:17;;;;;;;30.10;13.70;;;;;;;11.83;97.58;100677.91;110609;1272;22967;-59
2023/10/10 09:24:06;;;;;;;27.30;11.10;;;;;;;11.92;97.70;100674.79;110618;1272;22408;-59
2023/10/10 09:26:36;;;;;;;26.30;11.30;;;;;;;12.00;97.52;100673.27;110618;1272;22322;-58
2023/10/10 09:29:15;;;;;;;26.00;10.80;;;;;;;12.06;97.27;100685.80;110575;1272;22284;-59
2023/10/10 09:31:45;;;;;;;29.20;11.90;;;;;;;12.13;97.56;100689.20;110619;1272;22333;-59
2023/10/10 09:34:18;;;;;;;;;;;;;;;12.19;97.13;100694.35;110611;1272;22469;-59
2023/10/10 09:36:51;;;;;;;27.60;11.30;;;;;;;12.23;97.11;100696.41;110608;1265;23030;-58
2023/10/10 09:39:36;;;;;;;25.90;10.90;;;;;;;12.27;96.93;100697.77;110621;1272;22186;-57
2023/10/10 09:42:23;;;;;;;26.30;10.20;;;;;;;12.31;97.24;100695.45;110608;1270;22374;-60
2023/10/10 09:45:16;;;;;;;23.80;9.70;;;;;;;12.36;97.17;100697.29;110633;1270;23055;-61
2023/10/10 09:47:55;;;;;;;24.70;9.50;;;;;;;12.42;96.95;100695.52;110594;1272;22171;-58
2023/10/10 09:50:51;;;;;;;24.60;10.30;;;;;;;12.47;96.91;100700.33;110627;1272;22309;-59
2023/10/10 09:53:19;;;;;;;25.70;9.50;;;;;;;12.50;96.88;100697.55;110602;1272;23255;-59
2023/10/10 09:55:53;;;;;;;27.70;10.70;;;;;;;12.56;96.90;100699.58;110590;1272;22180;-58
2023/10/10 09:58:27;;;;;;;26.80;10.50;;;;;;;12.61;96.71;100704.56;110600;1272;22908;-55
2023/10/10 10:01:04;;;;;;;26.10;11.40;;;;;;;12.65;96.66;100709.38;110619;1272;22223;-60
2023/10/10 10:03:40;;;;;;;24.70;9.80;;;;;;;12.73;96.72;100710.67;110646;1272;23102;-57
2023/10/10 10:06:34;;;;;;;27.70;9.80;;;;;;;12.78;96.59;100707.56;110637;1271;22640;-59
2023/10/10 10:09:45;;;;;;;24.30;10.20;;;;;;;12.85;96.60;100705.35;110607;1272;23054;-60
2023/10/10 10:12:41;;;;;;;25.00;9.70;;;;;;;12.88;96.35;100709.33;110136;1277;22312;-60
2023/10/10 10:15:24;;;;;;;23.60;9.50;;;;;;;12.94;96.25;100708.06;110153;1271;23177;-60
2023/10/10 10:18:11;;;;;;;26.90;10.60;;;;;;;12.97;96.18;100700.75;110156;1277;22995;-59
2023/10/10 10:20:46;;;;;;;24.10;9.40;;;;;;;13.02;96.22;100700.63;110137;1277;22293;-60
2023/10/10 10:23:26;;;;;;;25.40;10.50;;;;;;;13.07;96.31;100697.38;110154;1274;22214;-59
2023/10/10 10:26:04;;;;;;;27.90;11.60;;;;;;;13.12;96.30;100692.98;110151;1277;22376;-58
2023/10/10 10:28:36;;;;;;;27.00;12.00;;;;;;;13.16;96.27;100691.05;110143;1274;22965;-60
2023/10/10 10:31:07;;;;;;;29.00;12.00;;;;;;;13.23;96.11;100685.80;110133;1271;22230;-57
2023/10/10 10:33:52;;;;;;;30.90;13.00;;;;;;;13.29;96.46;100678.21;110148;1266;22858;-60
2023/10/10 10:36:26;;;;;;;30.40;14.30;;;;;;;13.39;96.30;100677.09;110162;1277;22303;-57
2023/10/10 10:39:20;;;;;;;35.70;14.80;;;;;;;13.47;96.18;100681.33;110156;1274;22249;-57
2023/10/10 10:41:54;;;;;;;32.20;14.40;;;;;;;13.53;96.16;100683.40;110150;1275;22515;-57
2023/10/10 10:44:46;;;;;;;36.10;16.90;;;;;;;13.60;96.33;100684.52;110143;1277;22310;-60
2023/10/10 10:47:47;;;;;;;41.00;16.30;;;;;;;13.71;96.07;100682.83;110201;1273;22717;-60
2023/10/10 10:50:40;;;;;;;45.50;23.30;;;;;;;13.77;95.92;100683.42;110107;1276;23262;-59
2023/10/10 10:53:29;;;;;;;38.10;16.70;;;;;;;13.87;95.93;100680.73;110100;1278;22219;-59
2023/10/10 10:59:11;;;;;;;33.20;15.30;;;;;;;14.06;96.15;100678.11;110092;1278;22406;-59
2023/10/10 11:01:46;;;;;;;32.30;15.00;;;;;;;14.16;95.79;100681.75;110099;1274;22938;-58
2023/10/10 11:04:18;;;;;;;31.90;14.30;;;;;;;14.21;95.75;100675.64;110067;1277;23694;-58
2023/10/10 11:06:52;;;;;;;31.70;13.80;;;;;;;14.28;95.48;100675.27;110075;1278;23032;-58
2023/10/10 11:09:28;;;;;;;37.80;15.10;;;;;;;14.33;95.35;100675.29;110084;1278;22239;-57
2023/10/10 11:12:02;;;;;;;34.60;16.20;;;;;;;14.36;95.17;100670.68;110095;1278;22353;-59
2023/10/10 11:14:31;;;;;;;35.50;14.30;;;;;;;14.40;95.19;100667.09;110082;1278;22998;-57
2023/10/10 11:16:59;;;;;;;33.70;13.70;;;;;;;14.45;95.16;100664.02;110123;1278;22247;-59
2023/10/10 11:19:40;;;;;;;34.90;16.00;;;;;;;14.50;95.27;100665.49;110103;1278;22595;-58
2023/10/10 11:22:16;;;;;;;39.40;17.00;;;;;;;14.57;95.78;100664.20;110090;1278;22297;-59
2023/10/10 11:24:49;;;;;;;34.70;13.30;;;;;;;14.68;95.56;100667.00;110111;1276;22425;-59
2023/10/10 11:27:21;;;;;;;26.70;11.00;;;;;;;14.78;95.35;100666.52;110318;1272;23200;-58
2023/10/10 11:29:51;;;;;;;25.30;9.40;;;;;;;14.81;94.49;100666.14;110573;1270;22193;-56
2023/10/10 11:32:24;;;;;;;25.10;9.80;;;;;;;14.84;94.60;100669.04;110578;1272;22229;-59
2023/10/10 11:34:56;;;;;;;27.20;9.30;;;;;;;14.85;94.23;100668.54;110610;1272;22418;-57
2023/10/10 11:37:26;;;;;;;27.90;9.80;;;;;;;14.85;94.67;100670.26;110616;1272;22302;-59
2023/10/10 11:40:19;;;;;;;31.30;8.80;;;;;;;14.87;95.14;100668.80;110602;1268;22563;-55
2023/10/10 11:42:48;;;;;;;23.60;8.50;;;;;;;14.90;95.08;100669.59;110592;1265;23049;-59
2023/10/10 11:45:19;;;;;;;26.30;9.00;;;;;;;14.90;95.05;100669.17;110618;1271;22149;-59
2023/10/10 11:47:48;;;;;;;22.00;7.10;;;;;;;14.89;94.89;100662.73;110626;1272;23013;-59
2023/10/10 11:50:17;;;;;;;20.40;6.20;;;;;;;14.86;94.98;100661.13;110600;1272;23237;-58
2023/10/10 11:52:52;;;;;;;20.00;6.50;;;;;;;14.80;95.14;100664.55;110614;1271;22372;-58
2023/10/10 11:55:21;;;;;;;17.70;5.60;;;;;;;14.75;95.58;100663.95;110586;1272;22265;-59
2023/10/10 11:57:50;;;;;;;16.20;5.20;;;;;;;14.70;95.88;100664.55;110615;1272;23045;-60
2023/10/10 12:00:22;;;;;;;16.30;5.30;;;;;;;14.64;95.83;100665.79;110617;1271;22166;-59
2023/10/10 12:02:51;;;;;;;18.10;6.60;;;;;;;14.58;95.92;100661.24;110609;1268;23068;-59
2023/10/10 12:05:47;;;;;;;16.70;4.90;;;;;;;14.57;96.31;100660.92;110592;1268;22253;-59
2023/10/10 12:08:22;;;;;;;17.30;5.70;;;;;;;14.54;96.21;100658.70;110606;1272;23094;-59
2023/10/10 12:10:52;;;;;;;15.20;4.70;;;;;;;14.51;96.36;100656.30;110630;1272;22153;-57
2023/10/10 12:13:33;;;;;;;18.70;6.20;;;;;;;14.50;96.70;100656.88;110592;1265;22212;-59
2023/10/10 12:16:07;;;;;;;15.70;5.00;;;;;;;14.50;96.49;100656.86;110631;1266;22381;-59
2023/10/10 12:18:43;;;;;;;17.70;5.50;;;;;;;14.51;97.00;100656.32;110597;1272;22906;-59
2023/10/10 12:21:14;;;;;;;12.70;4.60;;;;;;;14.52;96.78;100654.27;110602;1267;22176;-59
2023/10/10 12:23:42;;;;;;;15.80;4.80;;;;;;;14.54;97.06;100659.21;110591;1272;22198;-58
2023/10/10 12:26:10;;;;;;;15.90;4.30;;;;;;;14.57;97.04;100668.95;110608;1272;22428;-58
2023/10/10 12:28:39;;;;;;;13.80;4.10;;;;;;;14.61;97.07;100671.36;110619;1272;22210;-59
2023/10/10 12:31:15;;;;;;;10.60;2.70;;;;;;;14.60;97.05;100670.70;110595;1270;22425;-57
2023/10/10 12:33:45;;;;;;;10.80;3.10;;;;;;;14.58;97.05;100667.52;110596;1268;22326;-57
2023/10/10 12:36:14;;;;;;;14.10;3.20;;;;;;;14.58;97.00;100666.03;110619;1272;22169;-59
2023/10/10 12:38:43;;;;;;;14.60;3.70;;;;;;;14.54;97.02;100664.58;110605;1268;23149;-58
2023/10/10 12:41:11;;;;;;;10.60;2.90;;;;;;;14.52;97.20;100663.43;110614;1272;23138;-59
2023/10/10 12:43:40;;;;;;;8.60;2.10;;;;;;;14.51;97.27;100664.23;110635;1272;22290;-57
2023/10/10 12:46:09;;;;;;;9.50;2.30;;;;;;;14.48;97.32;100660.89;110600;1272;22374;-60
2023/10/10 12:48:39;;;;;;;10.60;2.90;;;;;;;14.45;97.54;100659.89;110607;1272;22227;-57
2023/10/10 12:51:09;;;;;;;9.30;1.70;;;;;;;14.47;98.00;100658.46;110594;1272;22256;-58
2023/10/10 12:53:39;;;;;;;7.80;1.80;;;;;;;14.51;98.31;100654.48;110595;1272;23156;-59
2023/10/10 12:56:16;;;;;;;4.80;1.40;;;;;;;14.54;98.26;100654.00;110573;1272;22166;-60
2023/10/10 12:58:51;;;;;;;5.80;1.50;;;;;;;14.56;98.20;100655.04;110603;1272;22234;-59
2023/10/10 13:01:22;;;;;;;6.10;1.50;;;;;;;14.61;98.19;100652.38;110648;1272;22451;-57
2023/10/10 13:03:51;;;;;;;6.00;1.60;;;;;;;14.66;98.24;100648.59;110594;1272;22331;-56
2023/10/10 13:06:22;;;;;;;8.30;1.70;;;;;;;14.68;97.87;100644.45;110637;1270;22248;-57
2023/10/10 13:08:55;;;;;;;9.30;2.00;;;;;;;14.71;98.00;100642.08;110616;1272;22387;-59
2023/10/10 13:11:32;;;;;;;8.40;1.70;;;;;;;14.76;98.02;100645.45;110619;1272;22216;-59
2023/10/10 13:14:09;;;;;;;8.40;1.20;;;;;;;14.82;97.93;100634.93;110624;1272;22182;-60
2023/10/10 13:19:39;;;;;;;3.90;1.20;;;;;;;14.99;97.21;100628.01;103002;1305;544948;-58
2023/10/10 13:22:20;;;;;;;4.90;1.40;;;;;;;15.04;97.15;100632.45;109855;1284;22163;-59
2023/10/10 13:24:51;;;;;;;3.00;1.10;;;;;;;15.11;97.02;100630.08;109844;1284;22172;-58
2023/10/10 13:27:25;;;;;;;5.40;0.90;;;;;;;15.15;96.18;100631.69;109828;1285;22162;-56
2023/10/10 13:29:56;;;;;;;4.00;1.00;;;;;;;15.15;95.91;100631.23;109839;1279;22112;-55
2023/10/10 13:32:27;;;;;;;4.30;1.10;;;;;;;15.16;95.85;100632.21;109722;1282;204904;-58
2023/10/10 13:34:58;;;;;;;5.30;1.00;;;;;;;15.19;96.02;100634.29;109940;1282;22248;-56
2023/10/10 13:37:28;;;;;;;4.60;1.00;;;;;;;15.22;96.02;100630.77;109941;1282;22376;-59
2023/10/10 13:39:59;;;;;;;3.20;0.90;;;;;;;15.24;95.73;100630.94;109908;1282;22215;-56
2023/10/10 13:42:30;;;;;;;3.20;0.90;;;;;;;15.25;95.53;100623.33;109926;1282;22816;-57
2023/10/10 13:45:11;;;;;;;5.50;1.10;;;;;;;15.26;95.12;100625.31;109915;1279;22223;-58
2023/10/10 13:47:40;;;;;;;;;;;;;;;15.27;94.96;100622.61;109923;1282;22490;-57